Time;durP1;ratioP1;P1;durP2;ratioP2;P2;SDS_P1;SDS_P2;PMS_P1;PMS_P2;Temp;Humidity;BMP_temperature;BMP_pressure;BME280_temperature;BME280_humidity;BME280_pressure;Samples;Min_cycle;Max_cycle;Signal;HPM_P1;HPM_P2
2022/10/22 00:05:01;;;;;;;0.40;0.40;;;;;;;;;;20883892;28;20193;-69
2022/10/22 00:15:05;;;;;;;1.50;0.33;;;15.70;99.90;;;;;;20866752;28;20495;-69
2022/10/22 00:25:07;;;;;;;0.20;0.20;;;15.60;99.90;;;;;;20872442;28;20256;-69
2022/10/22 00:35:09;;;;;;;0.13;0.13;;;;;;;;;;20881711;28;20209;-68
2022/10/22 00:45:11;;;;;;;0.77;0.37;;;;;;;;;;20880362;28;20275;-68
2022/10/22 00:55:13;;;;;;;0.60;0.30;;;15.40;99.90;;;;;;20863051;28;20221;-69
2022/10/22 01:05:16;;;;;;;0.67;0.30;;;;;;;;;;20862493;28;20233;-69
2022/10/22 01:15:17;;;;;;;0.70;0.17;;;;;;;;;;20862416;28;20591;-69
2022/10/22 01:25:20;;;;;;;0.33;0.20;;;;;;;;;;20868380;28;20267;-69
2022/10/22 01:35:33;;;;;;;1.10;0.50;;;;;;;;;;20860846;28;20222;-68
2022/10/22 01:45:46;;;;;;;0.47;0.20;;;15.20;99.90;;;;;;20868543;28;20303;-69
2022/10/22 01:56:10;;;;;;;0.10;0.10;;;;;;;;;;20842483;28;20213;-68
2022/10/22 02:06:15;;;;;;;0.23;0.20;;;;;;;;;;20857739;28;20217;-68
2022/10/22 02:16:21;;;;;;;1.17;0.20;;;;;;;;;;20868484;28;20237;-68
2022/10/22 02:26:33;;;;;;;1.07;0.40;;;;;;;;;;20853365;28;20271;-69
2022/10/22 02:36:37;;;;;;;1.87;0.20;;;15.20;99.90;;;;;;20899544;28;20589;-69
2022/10/22 02:46:40;;;;;;;0.30;0.20;;;;;;;;;;20855255;28;20728;-69
2022/10/22 02:56:41;;;;;;;2.90;0.20;;;;;;;;;;20849209;28;20291;-68
2022/10/22 03:06:43;;;;;;;0.20;0.20;;;;;;;;;;20854192;28;20201;-69
2022/10/22 03:16:45;;;;;;;0.20;0.20;;;;;;;;;;20854142;28;20310;-69
2022/10/22 03:26:49;;;;;;;0.20;0.20;;;;;;;;;;20851632;28;20251;-68
2022/10/22 03:36:52;;;;;;;0.10;0.10;;;;;;;;;;20852956;28;20782;-68
2022/10/22 03:46:54;;;;;;;0.20;0.20;;;;;;;;;;20852990;28;20787;-68
2022/10/22 03:56:55;;;;;;;1.60;0.20;;;;;;;;;;20907352;22;20226;-73
2022/10/22 04:06:58;;;;;;;0.20;0.20;;;;;;;;;;20994059;28;20197;-74
2022/10/22 04:17:00;;;;;;;0.30;0.20;;;;;;;;;;20896577;28;20666;-73
2022/10/22 04:27:02;;;;;;;0.17;0.17;;;;;;;;;;20897260;28;20221;-74
2022/10/22 04:37:03;;;;;;;0.20;0.20;;;;;;;;;;20909786;28;20681;-73
2022/10/22 04:47:05;;;;;;;0.20;0.20;;;;;;;;;;20910901;28;20670;-73
2022/10/22 04:57:07;;;;;;;0.60;0.40;;;;;;;;;;20908866;28;20601;-73
2022/10/22 05:07:08;;;;;;;0.20;0.20;;;;;;;;;;20909581;28;20284;-73
2022/10/22 05:17:10;;;;;;;0.63;0.37;;;;;;;;;;20908673;28;20240;-73
2022/10/22 05:27:12;;;;;;;0.60;0.33;;;;;;;;;;20909024;28;20206;-73
2022/10/22 05:37:13;;;;;;;0.43;0.27;;;;;;;;;;20905892;28;20240;-73
2022/10/22 05:47:15;;;;;;;0.20;0.20;;;;;;;;;;20898148;28;20226;-73
2022/10/22 05:57:18;;;;;;;0.23;0.20;;;;;;;;;;20872528;28;20229;-72
2022/10/22 06:07:19;;;;;;;0.60;0.30;;;;;;;;;;20905811;28;20264;-74
2022/10/22 06:17:21;;;;;;;0.30;0.30;;;;;;;;;;20878153;28;20225;-73
2022/10/22 06:27:23;;;;;;;0.20;0.20;;;;;;;;;;20902513;28;20226;-73
2022/10/22 06:37:25;;;;;;;0.20;0.20;;;;;;;;;;20885654;28;20222;-73
2022/10/22 06:47:26;;;;;;;0.93;0.50;;;;;;;;;;20886940;28;20202;-73
2022/10/22 06:57:30;;;;;;;0.57;0.30;;;;;;;;;;20896302;28;20241;-73
2022/10/22 07:07:32;;;;;;;0.20;0.20;;;;;;;;;;20899244;28;20751;-73
2022/10/22 07:17:34;;;;;;;0.60;0.43;;;;;;;;;;20875628;28;20217;-73
2022/10/22 07:27:36;;;;;;;0.47;0.30;;;;;;;;;;20910950;28;20281;-73
2022/10/22 07:37:38;;;;;;;0.93;0.47;;;;;;;;;;20898644;28;20759;-73
2022/10/22 07:47:39;;;;;;;0.77;0.30;;;;;;;;;;20899600;28;20213;-74
2022/10/22 07:57:41;;;;;;;1.37;0.30;;;;;;;;;;20898275;28;20250;-74
2022/10/22 08:07:43;;;;;;;0.23;0.23;;;;;;;;;;20894022;28;20345;-73
2022/10/22 08:17:44;;;;;;;0.20;0.20;;;;;;;;;;20910460;28;20217;-74
2022/10/22 08:27:47;;;;;;;0.20;0.20;;;;;;;;;;20911941;28;20222;-73
2022/10/22 08:37:49;;;;;;;0.20;0.20;;;;;;;;;;20887348;28;20252;-72
2022/10/22 08:48:18;;;;;;;0.27;0.27;;;16.70;99.90;;;;;;20911712;28;20230;-71
2022/10/22 08:58:20;;;;;;;0.93;0.40;;;;;;;;;;20902735;28;20678;-72
2022/10/22 09:08:22;;;;;;;0.20;0.20;;;;;;;;;;20891295;28;20198;-74
2022/10/22 09:18:51;;;;;;;0.77;0.30;;;17.20;99.90;;;;;;20901669;28;20222;-72
2022/10/22 09:28:54;;;;;;;0.30;0.20;;;;;;;;;;20889127;28;20210;-72
2022/10/22 09:38:56;;;;;;;0.20;0.20;;;;;;;;;;20897037;28;20202;-73
2022/10/22 09:49:01;;;;;;;0.20;0.20;;;;;;;;;;20887187;28;20248;-72
2022/10/22 09:59:03;;;;;;;0.50;0.30;;;;;;;;;;20934140;23;20230;-68
2022/10/22 10:09:25;;;;;;;0.50;0.30;;;18.30;99.90;;;;;;20940201;28;20259;-68
2022/10/22 10:19:33;;;;;;;0.40;0.30;;;;;;;;;;20939660;28;20253;-69
2022/10/22 10:29:44;;;;;;;0.37;0.30;;;18.70;99.90;;;;;;20954342;28;20217;-69
2022/10/22 10:39:59;;;;;;;0.93;0.50;;;;;;;;;;20938508;28;20256;-68
2022/10/22 10:50:27;;;;;;;0.60;0.30;;;;;;;;;;20937168;28;20217;-68
2022/10/22 11:00:38;;;;;;;1.13;0.53;;;19.00;99.90;;;;;;20921344;28;20287;-68
2022/10/22 11:10:40;;;;;;;1.07;0.40;;;;;;;;;;20968670;28;20230;-69
2022/10/22 11:20:48;;;;;;;1.70;0.40;;;;;;;;;;20952588;28;20215;-68
2022/10/22 11:31:07;;;;;;;0.90;0.30;;;19.30;99.90;;;;;;20935473;28;20586;-69
2022/10/22 11:41:12;;;;;;;0.47;0.30;;;19.00;99.90;;;;;;20967122;28;20567;-69
2022/10/22 11:51:35;;;;;;;1.27;0.30;;;18.80;99.90;;;;;;20967892;28;20304;-69
2022/10/22 12:01:41;;;;;;;0.40;0.30;;;;;;;;;;20950398;28;20220;-69
2022/10/22 12:11:49;;;;;;;1.03;0.40;;;18.70;99.90;;;;;;20966404;28;20215;-68
2022/10/22 12:21:57;;;;;;;2.00;0.30;;;;;;;;;;20949107;28;20241;-69
2022/10/22 12:32:02;;;;;;;1.17;0.50;;;;;;;;;;20981026;28;20637;-68
2022/10/22 12:42:04;;;;;;;0.80;0.40;;;;;;;;;;20964302;28;20203;-68
2022/10/22 12:52:12;;;;;;;1.40;0.80;;;20.00;99.90;;;;;;20945716;28;20269;-69
2022/10/22 13:02:20;;;;;;;4.43;2.10;;;;;;;;;;20962346;28;20709;-69
2022/10/22 13:12:35;;;;;;;2.33;0.50;;;19.80;99.90;;;;;;20945569;28;20251;-68
2022/10/22 13:22:38;;;;;;;3.27;0.70;;;;;;;;;;20976922;28;20224;-69
2022/10/22 13:32:40;;;;;;;1.30;0.50;;;;;;;;;;20939270;28;20294;-68
2022/10/22 13:42:42;;;;;;;0.80;0.63;;;;;;;;;;20935352;28;20228;-69
2022/10/22 13:52:50;;;;;;;3.20;0.60;;;;;;;;;;20905452;28;20276;-70
2022/10/22 14:02:54;;;;;;;0.67;0.30;;;;;;;;;;20941552;28;20301;-67
2022/10/22 14:12:57;;;;;;;1.53;0.50;;;;;;;;;;20927338;28;20277;-67
2022/10/22 14:23:07;;;;;;;1.70;0.40;;;;;;;;;;20929913;28;20268;-67
2022/10/22 14:33:17;;;;;;;1.63;0.60;;;19.30;99.90;;;;;;20925475;28;20209;-68
2022/10/22 14:43:22;;;;;;;0.87;0.30;;;19.20;99.90;;;;;;20962137;28;20272;-67
2022/10/22 14:53:24;;;;;;;3.10;0.47;;;;;;;;;;20926041;28;20808;-67
2022/10/22 15:03:26;;;;;;;0.50;0.30;;;;;;;;;;20900734;28;20232;-67
2022/10/22 15:13:28;;;;;;;0.53;0.30;;;;;;;;;;20933948;28;20219;-67
2022/10/22 15:23:31;;;;;;;0.20;0.20;;;;;;;;;;20897639;28;20690;-67
2022/10/22 15:33:33;;;;;;;1.60;0.50;;;;;;;;;;20901566;28;20217;-67
2022/10/22 15:43:35;;;;;;;1.10;0.50;;;;;;;;;;20980585;28;20339;-67
2022/10/22 15:53:37;;;;;;;1.27;0.50;;;;;;;;;;21014297;28;20254;-66
2022/10/22 16:03:39;;;;;;;3.17;0.80;;;;;;;;;;21005412;22;20266;-75
2022/10/22 16:13:41;;;;;;;5.50;1.30;;;;;;;;;;20957454;28;20216;-75
2022/10/22 16:23:43;;;;;;;9.93;2.40;;;;;;;;;;20882928;28;20223;-75
2022/10/22 16:33:45;;;;;;;1.37;0.80;;;;;;;;;;20900127;28;20236;-74
2022/10/22 16:43:48;;;;;;;0.83;0.57;;;18.10;99.90;;;;;;20902897;28;20253;-75
2022/10/22 16:53:51;;;;;;;1.40;0.70;;;;;;;;;;20874462;28;20218;-75
2022/10/22 17:03:55;;;;;;;3.23;1.00;;;18.10;99.90;;;;;;20904769;28;20245;-74
2022/10/22 17:13:57;;;;;;;2.30;0.80;;;;;;;;;;20905174;28;20276;-74
2022/10/22 17:23:59;;;;;;;1.43;0.60;;;;;;;;;;20890224;28;20235;-74
2022/10/22 17:34:00;;;;;;;2.63;0.60;;;17.60;99.90;;;;;;20879821;28;20224;-73
2022/10/22 17:44:04;;;;;;;1.27;0.67;;;;;;;;;;20873245;28;20619;-73
2022/10/22 17:54:06;;;;;;;0.87;0.50;;;;;;;;;;20895048;28;20218;-71
2022/10/22 18:04:08;;;;;;;1.30;0.80;;;;;;;;;;20882357;28;20321;-72
2022/10/22 18:14:10;;;;;;;1.70;0.97;;;;;;;;;;20859631;28;20697;-72
2022/10/22 18:24:14;;;;;;;2.00;0.90;;;;;;;;;;20872104;28;20253;-75
2022/10/22 18:34:16;;;;;;;2.43;0.83;;;;;;;;;;20896166;28;20234;-76
2022/10/22 18:44:19;;;;;;;4.27;0.97;;;;;;;;;;20877003;28;20279;-75
2022/10/22 18:54:21;;;;;;;0.90;0.63;;;;;;;;;;20889946;28;20603;-76
2022/10/22 19:04:27;;;;;;;2.03;0.70;;;;;;;;;;20897914;28;20230;-76
2022/10/22 19:14:29;;;;;;;2.80;0.90;;;;;;;;;;20881193;28;20221;-74
2022/10/22 19:24:31;;;;;;;1.97;0.60;;;;;;;;;;20898137;28;20259;-74
2022/10/22 19:34:33;;;;;;;2.30;0.90;;;;;;;;;;20897194;28;20226;-75
2022/10/22 19:44:35;;;;;;;1.20;0.70;;;;;;;;;;20892678;28;20299;-73
2022/10/22 19:54:39;;;;;;;2.33;0.80;;;;;;;;;;20846918;28;20580;-72
2022/10/22 20:04:41;;;;;;;1.37;0.80;;;;;;;;;;20900914;28;20299;-73
2022/10/22 20:14:44;;;;;;;1.97;1.10;;;;;;;;;;20906114;28;20222;-73
2022/10/22 20:24:45;;;;;;;2.30;1.10;;;;;;;;;;20905717;28;20637;-73
2022/10/22 20:34:47;;;;;;;1.83;1.00;;;;;;;;;;20904025;28;20288;-74
2022/10/22 20:44:49;;;;;;;2.37;1.30;;;;;;;;;;20906590;28;20616;-74
2022/10/22 20:54:51;;;;;;;2.40;1.80;;;;;;;;;;20905635;28;20218;-75
2022/10/22 21:04:52;;;;;;;3.00;1.60;;;;;;;;;;20892310;28;20637;-74
2022/10/22 21:14:54;;;;;;;2.00;1.40;;;;;;;;;;20889831;28;20226;-75
2022/10/22 21:24:56;;;;;;;3.13;1.10;;;;;;;;;;20908406;28;20280;-74
2022/10/22 21:34:58;;;;;;;1.53;0.90;;;;;;;;;;20908231;28;20221;-75
2022/10/22 21:44:59;;;;;;;2.83;1.13;;;;;;;;;;20904089;28;20743;-75
2022/10/22 21:55:01;;;;;;;2.07;1.00;;;;;;;;;;20881389;28;20222;-75
2022/10/22 22:05:03;;;;;;;2.63;0.90;;;;;;;;;;20931338;22;20251;-66
2022/10/22 22:15:05;;;;;;;1.50;0.80;;;15.80;99.90;;;;;;20873538;28;20767;-66
2022/10/22 22:25:08;;;;;;;2.60;1.23;;;15.60;99.90;;;;;;20855590;28;20206;-66
2022/10/22 22:35:10;;;;;;;1.47;0.90;;;;;;;;;;20839284;28;20229;-66
2022/10/22 22:45:11;;;;;;;1.47;0.77;;;;;;;;;;20871163;28;20256;-66
2022/10/22 22:55:14;;;;;;;2.47;0.80;;;;;;;;;;20869652;28;20233;-66
2022/10/22 23:05:16;;;;;;;1.63;0.80;;;;;;;;;;20833599;28;20295;-66
2022/10/22 23:15:18;;;;;;;2.17;0.93;;;;;;;;;;20853133;28;20225;-66
2022/10/22 23:25:20;;;;;;;4.80;2.73;;;;;;;;;;20835775;28;20573;-66
2022/10/22 23:35:22;;;;;;;4.00;0.90;;;;;;;;;;20835415;28;20226;-66
2022/10/22 23:45:24;;;;;;;2.30;1.00;;;;;;;;;;20835796;28;20229;-66
2022/10/22 23:55:25;;;;;;;3.90;1.10;;;;;;;;;;20835415;28;20222;-66
